sensor_id;sensor_type;location;lat;lon;timestamp;P1;durP1;ratioP1;P2;durP2;ratioP2
35330;SDS011;21441;52.190;20.910;2022-10-22T00:00:47;36.08;;;24.58;;
35330;SDS011;21441;52.190;20.910;2022-10-22T00:03:33;35.30;;;24.60;;
35330;SDS011;21441;52.190;20.910;2022-10-22T00:06:00;36.60;;;25.00;;
35330;SDS011;21441;52.190;20.910;2022-10-22T00:08:28;37.63;;;27.20;;
35330;SDS011;21441;52.190;20.910;2022-10-22T00:10:56;40.80;;;26.58;;
35330;SDS011;21441;52.190;20.910;2022-10-22T00:13:23;37.92;;;25.80;;
35330;SDS011;21441;52.190;20.910;2022-10-22T00:15:50;36.00;;;24.40;;
35330;SDS011;21441;52.190;20.910;2022-10-22T00:18:18;36.90;;;23.30;;
35330;SDS011;21441;52.190;20.910;2022-10-22T00:20:44;39.38;;;25.00;;
35330;SDS011;21441;52.190;20.910;2022-10-22T00:23:11;37.95;;;25.23;;
35330;SDS011;21441;52.190;20.910;2022-10-22T00:25:38;40.40;;;26.67;;
35330;SDS011;21441;52.190;20.910;2022-10-22T00:28:07;43.40;;;26.83;;
35330;SDS011;21441;52.190;20.910;2022-10-22T00:30:35;37.47;;;24.90;;
35330;SDS011;21441;52.190;20.910;2022-10-22T00:33:02;36.17;;;24.65;;
35330;SDS011;21441;52.190;20.910;2022-10-22T00:35:29;40.67;;;26.08;;
35330;SDS011;21441;52.190;20.910;2022-10-22T00:37:56;37.97;;;24.73;;
35330;SDS011;21441;52.190;20.910;2022-10-22T00:40:23;36.50;;;24.08;;
35330;SDS011;21441;52.190;20.910;2022-10-22T00:42:50;38.38;;;24.40;;
35330;SDS011;21441;52.190;20.910;2022-10-22T00:45:20;37.70;;;24.85;;
35330;SDS011;21441;52.190;20.910;2022-10-22T00:47:50;39.55;;;25.85;;
35330;SDS011;21441;52.190;20.910;2022-10-22T00:50:22;35.15;;;24.88;;
35330;SDS011;21441;52.190;20.910;2022-10-22T00:52:53;37.85;;;23.67;;
35330;SDS011;21441;52.190;20.910;2022-10-22T00:55:21;37.03;;;24.73;;
35330;SDS011;21441;52.190;20.910;2022-10-22T00:57:50;37.30;;;24.63;;
35330;SDS011;21441;52.190;20.910;2022-10-22T01:00:17;37.45;;;24.85;;
35330;SDS011;21441;52.190;20.910;2022-10-22T01:02:47;40.20;;;25.00;;
35330;SDS011;21441;52.190;20.910;2022-10-22T01:05:15;38.83;;;24.50;;
35330;SDS011;21441;52.190;20.910;2022-10-22T01:07:43;37.35;;;25.10;;
35330;SDS011;21441;52.190;20.910;2022-10-22T01:10:16;41.95;;;26.70;;
35330;SDS011;21441;52.190;20.910;2022-10-22T01:12:53;39.95;;;25.88;;
35330;SDS011;21441;52.190;20.910;2022-10-22T01:15:36;38.50;;;24.20;;
35330;SDS011;21441;52.190;20.910;2022-10-22T01:18:09;37.40;;;24.95;;
35330;SDS011;21441;52.190;20.910;2022-10-22T01:20:54;37.55;;;23.33;;
35330;SDS011;21441;52.190;20.910;2022-10-22T01:23:30;39.05;;;24.50;;
35330;SDS011;21441;52.190;20.910;2022-10-22T01:26:20;35.15;;;24.58;;
35330;SDS011;21441;52.190;20.910;2022-10-22T01:29:01;39.00;;;24.45;;
35330;SDS011;21441;52.190;20.910;2022-10-22T01:31:37;39.08;;;24.40;;
35330;SDS011;21441;52.190;20.910;2022-10-22T01:34:08;36.08;;;23.33;;
35330;SDS011;21441;52.190;20.910;2022-10-22T01:36:38;36.33;;;24.00;;
35330;SDS011;21441;52.190;20.910;2022-10-22T01:39:06;36.15;;;23.73;;
35330;SDS011;21441;52.190;20.910;2022-10-22T01:41:34;35.53;;;24.65;;
35330;SDS011;21441;52.190;20.910;2022-10-22T01:44:03;37.70;;;25.20;;
35330;SDS011;21441;52.190;20.910;2022-10-22T01:46:29;36.53;;;24.38;;
35330;SDS011;21441;52.190;20.910;2022-10-22T01:49:01;38.40;;;26.08;;
35330;SDS011;21441;52.190;20.910;2022-10-22T01:51:49;37.88;;;25.65;;
35330;SDS011;21441;52.190;20.910;2022-10-22T01:54:27;37.88;;;25.27;;
35330;SDS011;21441;52.190;20.910;2022-10-22T01:57:05;41.33;;;26.45;;
35330;SDS011;21441;52.190;20.910;2022-10-22T01:59:43;39.30;;;25.85;;
35330;SDS011;21441;52.190;20.910;2022-10-22T02:02:21;40.53;;;26.15;;
35330;SDS011;21441;52.190;20.910;2022-10-22T02:04:56;42.17;;;27.52;;
35330;SDS011;21441;52.190;20.910;2022-10-22T02:07:27;45.70;;;27.20;;
35330;SDS011;21441;52.190;20.910;2022-10-22T02:09:58;40.58;;;27.50;;
35330;SDS011;21441;52.190;20.910;2022-10-22T02:12:26;38.47;;;27.23;;
35330;SDS011;21441;52.190;20.910;2022-10-22T02:14:56;39.95;;;26.70;;
35330;SDS011;21441;52.190;20.910;2022-10-22T02:17:24;47.10;;;29.97;;
35330;SDS011;21441;52.190;20.910;2022-10-22T02:19:55;42.15;;;27.65;;
35330;SDS011;21441;52.190;20.910;2022-10-22T02:22:24;45.87;;;30.00;;
35330;SDS011;21441;52.190;20.910;2022-10-22T02:24:52;48.05;;;30.50;;
35330;SDS011;21441;52.190;20.910;2022-10-22T02:27:21;41.53;;;28.20;;
35330;SDS011;21441;52.190;20.910;2022-10-22T02:29:57;44.45;;;28.02;;
35330;SDS011;21441;52.190;20.910;2022-10-22T02:32:29;43.17;;;27.10;;
35330;SDS011;21441;52.190;20.910;2022-10-22T02:35:00;45.72;;;28.05;;
35330;SDS011;21441;52.190;20.910;2022-10-22T02:37:29;43.47;;;27.73;;
35330;SDS011;21441;52.190;20.910;2022-10-22T02:39:56;46.20;;;29.40;;
35330;SDS011;21441;52.190;20.910;2022-10-22T02:42:23;41.60;;;28.13;;
35330;SDS011;21441;52.190;20.910;2022-10-22T02:44:51;44.97;;;29.30;;
35330;SDS011;21441;52.190;20.910;2022-10-22T02:47:19;41.17;;;28.45;;
35330;SDS011;21441;52.190;20.910;2022-10-22T02:49:47;45.08;;;27.33;;
35330;SDS011;21441;52.190;20.910;2022-10-22T02:52:13;43.67;;;29.48;;
35330;SDS011;21441;52.190;20.910;2022-10-22T02:54:41;47.15;;;29.73;;
35330;SDS011;21441;52.190;20.910;2022-10-22T02:57:07;46.53;;;29.50;;
35330;SDS011;21441;52.190;20.910;2022-10-22T02:59:34;46.45;;;29.60;;
35330;SDS011;21441;52.190;20.910;2022-10-22T03:02:02;48.30;;;30.30;;
35330;SDS011;21441;52.190;20.910;2022-10-22T03:04:30;47.80;;;30.35;;
35330;SDS011;21441;52.190;20.910;2022-10-22T03:06:58;47.83;;;30.58;;
35330;SDS011;21441;52.190;20.910;2022-10-22T03:09:25;47.65;;;30.08;;
35330;SDS011;21441;52.190;20.910;2022-10-22T03:11:52;46.85;;;31.45;;
35330;SDS011;21441;52.190;20.910;2022-10-22T03:14:19;48.40;;;31.08;;
35330;SDS011;21441;52.190;20.910;2022-10-22T03:16:46;53.38;;;31.35;;
35330;SDS011;21441;52.190;20.910;2022-10-22T03:19:13;53.25;;;31.83;;
35330;SDS011;21441;52.190;20.910;2022-10-22T03:21:44;45.85;;;29.80;;
35330;SDS011;21441;52.190;20.910;2022-10-22T03:24:15;51.20;;;30.92;;
35330;SDS011;21441;52.190;20.910;2022-10-22T03:26:47;49.42;;;30.23;;
35330;SDS011;21441;52.190;20.910;2022-10-22T03:29:16;48.78;;;30.88;;
35330;SDS011;21441;52.190;20.910;2022-10-22T03:31:43;50.08;;;31.30;;
35330;SDS011;21441;52.190;20.910;2022-10-22T03:34:10;50.67;;;32.22;;
35330;SDS011;21441;52.190;20.910;2022-10-22T03:36:37;53.70;;;30.33;;
35330;SDS011;21441;52.190;20.910;2022-10-22T03:39:07;50.20;;;31.77;;
35330;SDS011;21441;52.190;20.910;2022-10-22T03:41:35;57.97;;;32.58;;
35330;SDS011;21441;52.190;20.910;2022-10-22T03:44:03;48.80;;;30.52;;
35330;SDS011;21441;52.190;20.910;2022-10-22T03:46:30;45.95;;;28.98;;
35330;SDS011;21441;52.190;20.910;2022-10-22T03:48:57;48.97;;;29.95;;
35330;SDS011;21441;52.190;20.910;2022-10-22T03:51:25;52.38;;;29.60;;
35330;SDS011;21441;52.190;20.910;2022-10-22T03:53:52;47.67;;;30.13;;
35330;SDS011;21441;52.190;20.910;2022-10-22T03:56:21;47.70;;;29.58;;
35330;SDS011;21441;52.190;20.910;2022-10-22T03:58:48;49.35;;;28.63;;
35330;SDS011;21441;52.190;20.910;2022-10-22T04:01:15;51.55;;;29.55;;
35330;SDS011;21441;52.190;20.910;2022-10-22T04:03:42;48.85;;;29.27;;
35330;SDS011;21441;52.190;20.910;2022-10-22T04:06:10;50.15;;;29.85;;
35330;SDS011;21441;52.190;20.910;2022-10-22T04:08:38;48.47;;;29.60;;
35330;SDS011;21441;52.190;20.910;2022-10-22T04:11:06;47.95;;;28.42;;
35330;SDS011;21441;52.190;20.910;2022-10-22T04:13:35;48.80;;;27.95;;
35330;SDS011;21441;52.190;20.910;2022-10-22T04:16:06;46.63;;;27.63;;
35330;SDS011;21441;52.190;20.910;2022-10-22T04:18:33;46.70;;;27.80;;
35330;SDS011;21441;52.190;20.910;2022-10-22T04:21:00;47.72;;;29.15;;
35330;SDS011;21441;52.190;20.910;2022-10-22T04:23:29;45.72;;;27.05;;
35330;SDS011;21441;52.190;20.910;2022-10-22T04:25:56;46.13;;;28.35;;
35330;SDS011;21441;52.190;20.910;2022-10-22T04:28:24;43.65;;;26.58;;
35330;SDS011;21441;52.190;20.910;2022-10-22T04:30:53;44.20;;;27.20;;
35330;SDS011;21441;52.190;20.910;2022-10-22T04:33:20;45.60;;;27.55;;
35330;SDS011;21441;52.190;20.910;2022-10-22T04:35:47;44.50;;;26.40;;
35330;SDS011;21441;52.190;20.910;2022-10-22T04:38:15;46.78;;;27.35;;
35330;SDS011;21441;52.190;20.910;2022-10-22T04:40:42;47.15;;;27.73;;
35330;SDS011;21441;52.190;20.910;2022-10-22T04:43:09;47.38;;;27.88;;
35330;SDS011;21441;52.190;20.910;2022-10-22T04:45:36;46.65;;;26.77;;
35330;SDS011;21441;52.190;20.910;2022-10-22T04:48:04;44.95;;;27.92;;
35330;SDS011;21441;52.190;20.910;2022-10-22T04:50:32;49.65;;;29.25;;
35330;SDS011;21441;52.190;20.910;2022-10-22T04:52:59;47.30;;;27.65;;
35330;SDS011;21441;52.190;20.910;2022-10-22T04:55:25;47.35;;;29.58;;
35330;SDS011;21441;52.190;20.910;2022-10-22T04:57:52;50.05;;;29.00;;
35330;SDS011;21441;52.190;20.910;2022-10-22T05:00:19;50.03;;;28.92;;
35330;SDS011;21441;52.190;20.910;2022-10-22T05:02:47;48.47;;;29.30;;
35330;SDS011;21441;52.190;20.910;2022-10-22T05:05:16;43.35;;;27.05;;
35330;SDS011;21441;52.190;20.910;2022-10-22T05:07:43;44.03;;;26.65;;
35330;SDS011;21441;52.190;20.910;2022-10-22T05:10:10;45.05;;;28.52;;
35330;SDS011;21441;52.190;20.910;2022-10-22T05:12:37;47.42;;;29.63;;
35330;SDS011;21441;52.190;20.910;2022-10-22T05:15:04;50.63;;;27.98;;
35330;SDS011;21441;52.190;20.910;2022-10-22T05:17:34;48.30;;;28.08;;
35330;SDS011;21441;52.190;20.910;2022-10-22T05:20:01;49.78;;;28.48;;
35330;SDS011;21441;52.190;20.910;2022-10-22T05:22:29;41.90;;;27.40;;
35330;SDS011;21441;52.190;20.910;2022-10-22T05:24:57;43.58;;;27.20;;
35330;SDS011;21441;52.190;20.910;2022-10-22T05:27:23;44.65;;;27.23;;
35330;SDS011;21441;52.190;20.910;2022-10-22T05:29:50;42.00;;;26.38;;
35330;SDS011;21441;52.190;20.910;2022-10-22T05:32:18;45.22;;;28.17;;
35330;SDS011;21441;52.190;20.910;2022-10-22T05:34:44;48.58;;;27.10;;
35330;SDS011;21441;52.190;20.910;2022-10-22T05:37:11;44.47;;;28.38;;
35330;SDS011;21441;52.190;20.910;2022-10-22T05:39:39;43.67;;;27.75;;
35330;SDS011;21441;52.190;20.910;2022-10-22T05:42:07;44.08;;;27.50;;
35330;SDS011;21441;52.190;20.910;2022-10-22T05:44:33;47.08;;;28.33;;
35330;SDS011;21441;52.190;20.910;2022-10-22T05:47:01;47.58;;;28.20;;
35330;SDS011;21441;52.190;20.910;2022-10-22T05:49:27;42.22;;;27.38;;
35330;SDS011;21441;52.190;20.910;2022-10-22T05:51:54;44.95;;;28.70;;
35330;SDS011;21441;52.190;20.910;2022-10-22T05:54:21;50.50;;;27.75;;
35330;SDS011;21441;52.190;20.910;2022-10-22T05:56:50;41.65;;;28.27;;
35330;SDS011;21441;52.190;20.910;2022-10-22T05:59:16;41.72;;;29.25;;
35330;SDS011;21441;52.190;20.910;2022-10-22T06:01:43;45.20;;;29.00;;
35330;SDS011;21441;52.190;20.910;2022-10-22T06:04:11;44.85;;;26.95;;
35330;SDS011;21441;52.190;20.910;2022-10-22T06:06:39;43.28;;;27.98;;
35330;SDS011;21441;52.190;20.910;2022-10-22T06:09:12;45.87;;;26.30;;
35330;SDS011;21441;52.190;20.910;2022-10-22T06:11:43;45.03;;;27.88;;
35330;SDS011;21441;52.190;20.910;2022-10-22T06:14:12;42.05;;;28.20;;
35330;SDS011;21441;52.190;20.910;2022-10-22T06:16:39;43.42;;;29.50;;
35330;SDS011;21441;52.190;20.910;2022-10-22T06:19:08;42.60;;;28.50;;
35330;SDS011;21441;52.190;20.910;2022-10-22T06:21:35;40.35;;;25.42;;
35330;SDS011;21441;52.190;20.910;2022-10-22T06:24:03;38.30;;;26.90;;
35330;SDS011;21441;52.190;20.910;2022-10-22T06:26:30;40.17;;;25.50;;
35330;SDS011;21441;52.190;20.910;2022-10-22T06:28:57;36.10;;;25.15;;
35330;SDS011;21441;52.190;20.910;2022-10-22T06:31:26;37.63;;;25.17;;
35330;SDS011;21441;52.190;20.910;2022-10-22T06:33:54;37.47;;;23.80;;
35330;SDS011;21441;52.190;20.910;2022-10-22T06:36:22;36.90;;;24.17;;
35330;SDS011;21441;52.190;20.910;2022-10-22T06:38:50;30.95;;;23.10;;
35330;SDS011;21441;52.190;20.910;2022-10-22T06:41:17;30.55;;;22.42;;
35330;SDS011;21441;52.190;20.910;2022-10-22T06:43:45;31.90;;;21.27;;
35330;SDS011;21441;52.190;20.910;2022-10-22T06:46:13;33.42;;;21.98;;
35330;SDS011;21441;52.190;20.910;2022-10-22T06:48:46;34.13;;;23.13;;
35330;SDS011;21441;52.190;20.910;2022-10-22T06:51:15;29.55;;;20.80;;
35330;SDS011;21441;52.190;20.910;2022-10-22T06:53:42;30.35;;;19.90;;
35330;SDS011;21441;52.190;20.910;2022-10-22T06:56:10;28.13;;;18.50;;
35330;SDS011;21441;52.190;20.910;2022-10-22T06:58:38;32.97;;;20.02;;
35330;SDS011;21441;52.190;20.910;2022-10-22T07:01:06;27.88;;;19.63;;
35330;SDS011;21441;52.190;20.910;2022-10-22T07:03:35;27.00;;;19.00;;
35330;SDS011;21441;52.190;20.910;2022-10-22T07:06:08;33.10;;;20.35;;
35330;SDS011;21441;52.190;20.910;2022-10-22T07:08:38;30.02;;;20.13;;
35330;SDS011;21441;52.190;20.910;2022-10-22T07:11:07;27.67;;;18.80;;
35330;SDS011;21441;52.190;20.910;2022-10-22T07:13:35;27.65;;;20.67;;
35330;SDS011;21441;52.190;20.910;2022-10-22T07:16:02;31.98;;;20.70;;
35330;SDS011;21441;52.190;20.910;2022-10-22T07:18:30;31.38;;;19.92;;
35330;SDS011;21441;52.190;20.910;2022-10-22T07:20:58;31.23;;;20.88;;
35330;SDS011;21441;52.190;20.910;2022-10-22T07:23:26;30.30;;;20.45;;
35330;SDS011;21441;52.190;20.910;2022-10-22T07:25:53;27.98;;;19.90;;
35330;SDS011;21441;52.190;20.910;2022-10-22T07:28:20;31.80;;;20.25;;
35330;SDS011;21441;52.190;20.910;2022-10-22T07:30:47;29.38;;;20.48;;
35330;SDS011;21441;52.190;20.910;2022-10-22T07:33:14;29.95;;;20.42;;
35330;SDS011;21441;52.190;20.910;2022-10-22T07:35:41;32.30;;;20.23;;
35330;SDS011;21441;52.190;20.910;2022-10-22T07:38:09;27.48;;;18.50;;
35330;SDS011;21441;52.190;20.910;2022-10-22T07:40:37;30.83;;;21.45;;
35330;SDS011;21441;52.190;20.910;2022-10-22T07:43:04;34.20;;;21.40;;
35330;SDS011;21441;52.190;20.910;2022-10-22T07:45:31;35.35;;;22.63;;
35330;SDS011;21441;52.190;20.910;2022-10-22T07:47:58;31.13;;;22.25;;
35330;SDS011;21441;52.190;20.910;2022-10-22T07:50:25;34.03;;;21.90;;
35330;SDS011;21441;52.190;20.910;2022-10-22T07:52:52;33.47;;;21.38;;
35330;SDS011;21441;52.190;20.910;2022-10-22T07:55:19;31.65;;;20.98;;
35330;SDS011;21441;52.190;20.910;2022-10-22T07:57:47;34.58;;;20.70;;
35330;SDS011;21441;52.190;20.910;2022-10-22T08:00:14;31.83;;;21.40;;
35330;SDS011;21441;52.190;20.910;2022-10-22T08:02:41;28.85;;;20.45;;
35330;SDS011;21441;52.190;20.910;2022-10-22T08:05:08;29.13;;;20.08;;
35330;SDS011;21441;52.190;20.910;2022-10-22T08:07:37;28.27;;;20.75;;
35330;SDS011;21441;52.190;20.910;2022-10-22T08:10:06;31.67;;;20.63;;
35330;SDS011;21441;52.190;20.910;2022-10-22T08:12:34;28.40;;;20.25;;
35330;SDS011;21441;52.190;20.910;2022-10-22T08:15:03;27.85;;;20.02;;
35330;SDS011;21441;52.190;20.910;2022-10-22T08:17:31;27.87;;;19.03;;
35330;SDS011;21441;52.190;20.910;2022-10-22T08:19:58;31.70;;;20.83;;
35330;SDS011;21441;52.190;20.910;2022-10-22T08:22:25;30.83;;;20.42;;
35330;SDS011;21441;52.190;20.910;2022-10-22T08:24:52;30.42;;;20.40;;
35330;SDS011;21441;52.190;20.910;2022-10-22T08:27:19;28.92;;;20.38;;
35330;SDS011;21441;52.190;20.910;2022-10-22T08:29:46;31.52;;;20.10;;
35330;SDS011;21441;52.190;20.910;2022-10-22T08:32:14;30.55;;;20.35;;
35330;SDS011;21441;52.190;20.910;2022-10-22T08:34:41;30.33;;;20.42;;
35330;SDS011;21441;52.190;20.910;2022-10-22T08:37:07;29.92;;;19.88;;
35330;SDS011;21441;52.190;20.910;2022-10-22T08:39:38;28.42;;;20.30;;
35330;SDS011;21441;52.190;20.910;2022-10-22T08:42:09;28.60;;;19.98;;
35330;SDS011;21441;52.190;20.910;2022-10-22T08:44:56;26.27;;;19.83;;
35330;SDS011;21441;52.190;20.910;2022-10-22T08:47:35;30.52;;;19.70;;
35330;SDS011;21441;52.190;20.910;2022-10-22T08:50:14;28.45;;;19.40;;
35330;SDS011;21441;52.190;20.910;2022-10-22T08:52:45;32.05;;;20.75;;
35330;SDS011;21441;52.190;20.910;2022-10-22T08:55:17;45.80;;;27.70;;
35330;SDS011;21441;52.190;20.910;2022-10-22T08:57:45;47.28;;;30.83;;
35330;SDS011;21441;52.190;20.910;2022-10-22T09:00:19;36.35;;;24.30;;
35330;SDS011;21441;52.190;20.910;2022-10-22T09:02:54;33.70;;;22.98;;
35330;SDS011;21441;52.190;20.910;2022-10-22T09:05:34;30.02;;;20.63;;
35330;SDS011;21441;52.190;20.910;2022-10-22T09:08:09;25.38;;;19.05;;
35330;SDS011;21441;52.190;20.910;2022-10-22T09:10:37;29.60;;;20.88;;
35330;SDS011;21441;52.190;20.910;2022-10-22T09:13:08;32.28;;;19.98;;
35330;SDS011;21441;52.190;20.910;2022-10-22T09:15:38;25.15;;;19.15;;
35330;SDS011;21441;52.190;20.910;2022-10-22T09:18:12;31.90;;;18.55;;
35330;SDS011;21441;52.190;20.910;2022-10-22T09:20:52;27.15;;;18.88;;
35330;SDS011;21441;52.190;20.910;2022-10-22T09:23:23;30.88;;;20.15;;
35330;SDS011;21441;52.190;20.910;2022-10-22T09:25:58;32.72;;;19.75;;
35330;SDS011;21441;52.190;20.910;2022-10-22T09:28:25;27.58;;;19.10;;
35330;SDS011;21441;52.190;20.910;2022-10-22T09:30:53;33.47;;;20.08;;
35330;SDS011;21441;52.190;20.910;2022-10-22T09:33:23;36.40;;;22.42;;
35330;SDS011;21441;52.190;20.910;2022-10-22T09:35:52;28.70;;;19.05;;
35330;SDS011;21441;52.190;20.910;2022-10-22T09:40:52;32.00;;;20.30;;
35330;SDS011;21441;52.190;20.910;2022-10-22T09:43:21;33.13;;;20.27;;
35330;SDS011;21441;52.190;20.910;2022-10-22T09:45:54;35.78;;;21.90;;
35330;SDS011;21441;52.190;20.910;2022-10-22T09:48:27;33.83;;;21.67;;
35330;SDS011;21441;52.190;20.910;2022-10-22T09:50:58;40.92;;;24.85;;
35330;SDS011;21441;52.190;20.910;2022-10-22T09:53:30;35.90;;;23.80;;
35330;SDS011;21441;52.190;20.910;2022-10-22T09:56:05;36.83;;;21.40;;
35330;SDS011;21441;52.190;20.910;2022-10-22T09:58:39;39.33;;;23.45;;
35330;SDS011;21441;52.190;20.910;2022-10-22T10:01:15;40.22;;;23.95;;
35330;SDS011;21441;52.190;20.910;2022-10-22T10:03:46;37.08;;;22.75;;
35330;SDS011;21441;52.190;20.910;2022-10-22T10:06:16;40.47;;;23.77;;
35330;SDS011;21441;52.190;20.910;2022-10-22T10:08:45;36.47;;;22.10;;
35330;SDS011;21441;52.190;20.910;2022-10-22T10:11:15;32.28;;;21.45;;
35330;SDS011;21441;52.190;20.910;2022-10-22T10:13:51;30.83;;;20.55;;
35330;SDS011;21441;52.190;20.910;2022-10-22T10:16:31;33.58;;;20.85;;
35330;SDS011;21441;52.190;20.910;2022-10-22T10:19:10;33.75;;;20.30;;
35330;SDS011;21441;52.190;20.910;2022-10-22T10:21:58;29.90;;;19.85;;
35330;SDS011;21441;52.190;20.910;2022-10-22T10:24:38;32.58;;;20.85;;
35330;SDS011;21441;52.190;20.910;2022-10-22T10:27:19;30.45;;;19.10;;
35330;SDS011;21441;52.190;20.910;2022-10-22T10:29:52;31.40;;;21.35;;
35330;SDS011;21441;52.190;20.910;2022-10-22T10:32:27;34.35;;;20.52;;
35330;SDS011;21441;52.190;20.910;2022-10-22T10:35:11;31.15;;;21.15;;
35330;SDS011;21441;52.190;20.910;2022-10-22T10:37:48;34.22;;;21.75;;
35330;SDS011;21441;52.190;20.910;2022-10-22T10:40:30;35.15;;;23.58;;
35330;SDS011;21441;52.190;20.910;2022-10-22T10:43:05;36.40;;;25.48;;
35330;SDS011;21441;52.190;20.910;2022-10-22T10:45:36;39.72;;;25.33;;
35330;SDS011;21441;52.190;20.910;2022-10-22T10:48:11;32.65;;;20.23;;
35330;SDS011;21441;52.190;20.910;2022-10-22T10:50:52;37.78;;;21.65;;
35330;SDS011;21441;52.190;20.910;2022-10-22T10:53:33;34.63;;;22.38;;
35330;SDS011;21441;52.190;20.910;2022-10-22T10:56:13;30.30;;;20.85;;
35330;SDS011;21441;52.190;20.910;2022-10-22T10:58:59;33.92;;;20.27;;
35330;SDS011;21441;52.190;20.910;2022-10-22T11:01:35;39.55;;;21.73;;
35330;SDS011;21441;52.190;20.910;2022-10-22T11:07:19;37.67;;;21.30;;
35330;SDS011;21441;52.190;20.910;2022-10-22T11:09:53;40.90;;;23.58;;
35330;SDS011;21441;52.190;20.910;2022-10-22T11:12:23;35.88;;;22.48;;
35330;SDS011;21441;52.190;20.910;2022-10-22T11:14:55;40.10;;;25.23;;
35330;SDS011;21441;52.190;20.910;2022-10-22T11:17:28;39.75;;;25.40;;
35330;SDS011;21441;52.190;20.910;2022-10-22T11:20:02;42.15;;;24.70;;
35330;SDS011;21441;52.190;20.910;2022-10-22T11:22:37;39.55;;;26.88;;
35330;SDS011;21441;52.190;20.910;2022-10-22T11:25:13;37.35;;;25.25;;
35330;SDS011;21441;52.190;20.910;2022-10-22T11:27:46;45.08;;;24.88;;
35330;SDS011;21441;52.190;20.910;2022-10-22T11:30:19;36.17;;;23.05;;
35330;SDS011;21441;52.190;20.910;2022-10-22T11:32:48;38.50;;;25.02;;
35330;SDS011;21441;52.190;20.910;2022-10-22T11:35:19;37.00;;;23.30;;
35330;SDS011;21441;52.190;20.910;2022-10-22T11:37:49;35.08;;;23.33;;
35330;SDS011;21441;52.190;20.910;2022-10-22T11:40:18;35.25;;;22.95;;
35330;SDS011;21441;52.190;20.910;2022-10-22T11:42:47;42.60;;;24.92;;
35330;SDS011;21441;52.190;20.910;2022-10-22T11:45:26;39.35;;;26.05;;
35330;SDS011;21441;52.190;20.910;2022-10-22T11:47:57;40.28;;;24.55;;
35330;SDS011;21441;52.190;20.910;2022-10-22T11:50:42;38.10;;;25.02;;
35330;SDS011;21441;52.190;20.910;2022-10-22T11:53:27;40.25;;;25.55;;
35330;SDS011;21441;52.190;20.910;2022-10-22T11:55:57;41.30;;;24.45;;
35330;SDS011;21441;52.190;20.910;2022-10-22T11:58:46;38.13;;;24.98;;
35330;SDS011;21441;52.190;20.910;2022-10-22T12:01:21;46.15;;;26.98;;
35330;SDS011;21441;52.190;20.910;2022-10-22T12:29:17;36.30;;;22.75;;
35330;SDS011;21441;52.190;20.910;2022-10-22T12:31:47;32.92;;;21.63;;
35330;SDS011;21441;52.190;20.910;2022-10-22T12:34:15;32.17;;;22.30;;
35330;SDS011;21441;52.190;20.910;2022-10-22T12:36:45;35.80;;;21.55;;
35330;SDS011;21441;52.190;20.910;2022-10-22T12:39:14;35.72;;;22.75;;
35330;SDS011;21441;52.190;20.910;2022-10-22T14:01:05;45.92;;;28.10;;
35330;SDS011;21441;52.190;20.910;2022-10-22T14:03:42;42.65;;;26.60;;
35330;SDS011;21441;52.190;20.910;2022-10-22T14:06:10;43.50;;;26.90;;
35330;SDS011;21441;52.190;20.910;2022-10-22T14:08:38;40.88;;;25.45;;
35330;SDS011;21441;52.190;20.910;2022-10-22T14:11:08;43.25;;;26.58;;
35330;SDS011;21441;52.190;20.910;2022-10-22T14:13:36;45.45;;;27.08;;
35330;SDS011;21441;52.190;20.910;2022-10-22T14:16:04;46.65;;;26.65;;
35330;SDS011;21441;52.190;20.910;2022-10-22T14:18:34;43.13;;;28.48;;
35330;SDS011;21441;52.190;20.910;2022-10-22T14:21:02;48.17;;;28.58;;
35330;SDS011;21441;52.190;20.910;2022-10-22T14:26:01;40.00;;;27.75;;
35330;SDS011;21441;52.190;20.910;2022-10-22T14:28:31;41.75;;;27.35;;
35330;SDS011;21441;52.190;20.910;2022-10-22T14:30:58;47.28;;;28.52;;
35330;SDS011;21441;52.190;20.910;2022-10-22T14:33:26;48.88;;;29.08;;
35330;SDS011;21441;52.190;20.910;2022-10-22T14:35:55;46.45;;;28.35;;
35330;SDS011;21441;52.190;20.910;2022-10-22T14:38:22;46.25;;;30.08;;
35330;SDS011;21441;52.190;20.910;2022-10-22T14:40:48;47.45;;;28.25;;
35330;SDS011;21441;52.190;20.910;2022-10-22T14:43:19;53.55;;;30.73;;
35330;SDS011;21441;52.190;20.910;2022-10-22T14:45:47;48.30;;;27.90;;
35330;SDS011;21441;52.190;20.910;2022-10-22T14:48:15;51.88;;;30.88;;
35330;SDS011;21441;52.190;20.910;2022-10-22T14:50:42;55.13;;;30.92;;
35330;SDS011;21441;52.190;20.910;2022-10-22T14:53:11;54.08;;;34.35;;
35330;SDS011;21441;52.190;20.910;2022-10-22T14:55:39;55.13;;;32.55;;
35330;SDS011;21441;52.190;20.910;2022-10-22T15:03:03;54.85;;;32.72;;
35330;SDS011;21441;52.190;20.910;2022-10-22T15:05:30;54.85;;;31.77;;
35330;SDS011;21441;52.190;20.910;2022-10-22T15:07:57;57.88;;;31.88;;
35330;SDS011;21441;52.190;20.910;2022-10-22T15:10:24;47.20;;;30.30;;
35330;SDS011;21441;52.190;20.910;2022-10-22T15:12:52;52.97;;;31.88;;
35330;SDS011;21441;52.190;20.910;2022-10-22T15:15:19;55.78;;;31.73;;
35330;SDS011;21441;52.190;20.910;2022-10-22T15:17:47;52.45;;;32.47;;
35330;SDS011;21441;52.190;20.910;2022-10-22T15:20:14;49.78;;;30.30;;
35330;SDS011;21441;52.190;20.910;2022-10-22T15:22:41;51.25;;;31.67;;
35330;SDS011;21441;52.190;20.910;2022-10-22T15:25:08;50.90;;;30.95;;
35330;SDS011;21441;52.190;20.910;2022-10-22T15:27:35;49.25;;;31.48;;
35330;SDS011;21441;52.190;20.910;2022-10-22T15:30:02;51.28;;;30.90;;
35330;SDS011;21441;52.190;20.910;2022-10-22T15:32:30;53.53;;;33.72;;
35330;SDS011;21441;52.190;20.910;2022-10-22T16:09:29;53.00;;;33.97;;
35330;SDS011;21441;52.190;20.910;2022-10-22T16:11:56;59.65;;;34.70;;
35330;SDS011;21441;52.190;20.910;2022-10-22T16:14:23;62.58;;;37.20;;
35330;SDS011;21441;52.190;20.910;2022-10-22T16:16:50;61.20;;;37.05;;
35330;SDS011;21441;52.190;20.910;2022-10-22T16:19:20;65.20;;;39.87;;
35330;SDS011;21441;52.190;20.910;2022-10-22T16:21:49;69.28;;;41.75;;
35330;SDS011;21441;52.190;20.910;2022-10-22T16:24:18;72.93;;;43.30;;
35330;SDS011;21441;52.190;20.910;2022-10-22T16:26:47;73.78;;;41.70;;
35330;SDS011;21441;52.190;20.910;2022-10-22T16:29:14;72.88;;;44.75;;
35330;SDS011;21441;52.190;20.910;2022-10-22T16:31:41;83.28;;;45.67;;
35330;SDS011;21441;52.190;20.910;2022-10-22T16:34:10;74.15;;;41.67;;
35330;SDS011;21441;52.190;20.910;2022-10-22T16:36:37;87.65;;;45.67;;
35330;SDS011;21441;52.190;20.910;2022-10-22T16:39:05;74.75;;;43.25;;
35330;SDS011;21441;52.190;20.910;2022-10-22T16:41:33;78.78;;;45.10;;
35330;SDS011;21441;52.190;20.910;2022-10-22T16:44:03;86.45;;;45.05;;
35330;SDS011;21441;52.190;20.910;2022-10-22T16:46:32;84.22;;;46.00;;
35330;SDS011;21441;52.190;20.910;2022-10-22T16:49:02;89.30;;;47.60;;
35330;SDS011;21441;52.190;20.910;2022-10-22T16:51:31;78.18;;;46.40;;
35330;SDS011;21441;52.190;20.910;2022-10-22T16:53:58;85.07;;;47.88;;
35330;SDS011;21441;52.190;20.910;2022-10-22T16:56:25;87.10;;;47.75;;